createdAt,value
2023-02-06T00:05:38.836Z,90
2023-02-06T00:15:40.142Z,90
2023-02-06T00:25:41.804Z,91
2023-02-06T00:35:43.490Z,90
2023-02-06T00:45:44.988Z,90
2023-02-06T00:55:46.060Z,90
2023-02-06T01:05:47.493Z,90
2023-02-06T01:15:51.050Z,91
2023-02-06T01:25:50.803Z,91
2023-02-06T01:35:52.490Z,91
2023-02-06T01:55:55.112Z,91
2023-02-06T02:05:57.125Z,91
2023-02-06T02:15:58.551Z,91
2023-02-06T02:25:59.781Z,91
2023-02-06T02:36:01.667Z,91
2023-02-06T02:46:02.913Z,92
2023-02-06T02:56:04.736Z,92
2023-02-06T03:06:06.748Z,92
2023-02-06T03:16:08.172Z,92
2023-02-06T03:26:09.480Z,92
2023-02-06T03:36:10.697Z,92
2023-02-06T03:46:12.748Z,93
2023-02-06T03:56:14.048Z,93
2023-02-06T04:16:17.726Z,92
2023-02-06T04:26:19.202Z,93
2023-02-06T04:46:22.642Z,92
2023-02-06T04:56:23.998Z,92
2023-02-06T05:06:25.129Z,92
2023-02-06T05:16:26.511Z,93
2023-02-06T05:46:31.285Z,93
2023-02-06T05:56:32.737Z,94
2023-02-06T06:06:34.178Z,94
2023-02-06T06:16:36.255Z,94
2023-02-06T06:26:37.755Z,95
2023-02-06T06:36:39.006Z,95
2023-02-06T06:46:40.466Z,96
2023-02-06T06:56:42.136Z,96
2023-02-06T07:06:44.018Z,96
2023-02-06T07:16:45.742Z,96
2023-02-06T07:36:49.482Z,95
2023-02-06T07:46:50.779Z,96
2023-02-06T07:56:51.964Z,96
2023-02-06T08:06:53.940Z,96
2023-02-06T08:16:56.020Z,96
2023-02-06T08:26:57.861Z,96
2023-02-06T08:36:59.382Z,95
2023-02-06T08:47:09.503Z,95
2023-02-06T08:57:01.818Z,95
2023-02-06T09:07:03.639Z,95
2023-02-06T09:17:05.647Z,95
2023-02-06T09:27:07.118Z,95
2023-02-06T09:37:08.259Z,95
2023-02-06T09:39:46.612Z,95
2023-02-06T09:47:19.084Z,95
2023-02-06T09:57:20.590Z,96
2023-02-06T10:07:22.105Z,96
2023-02-06T10:17:23.209Z,96
2023-02-06T10:27:24.502Z,96
2023-02-06T10:37:25.845Z,96
2023-02-06T10:47:27.078Z,96
2023-02-06T10:57:28.923Z,96
2023-02-06T11:07:30.783Z,95
2023-02-06T11:17:32.020Z,95
2023-02-06T11:27:33.795Z,95
2023-02-06T11:37:34.813Z,95
2023-02-06T11:47:37.672Z,95
2023-02-06T11:57:37.566Z,95
2023-02-06T12:07:38.760Z,95
2023-02-06T12:17:39.937Z,95
2023-02-06T12:27:41.302Z,94
2023-02-06T12:37:42.801Z,94
2023-02-06T12:47:44.206Z,94
2023-02-06T12:57:46.080Z,93
2023-02-06T13:07:49.593Z,92
2023-02-06T13:17:49.481Z,91
2023-02-06T13:27:51.430Z,90
2023-02-06T13:37:53.244Z,91
2023-02-06T13:47:55.127Z,91
2023-02-06T13:57:56.825Z,90
2023-02-06T14:07:58.607Z,91
2023-02-06T14:17:59.721Z,91
2023-02-06T14:28:00.972Z,90
2023-02-06T14:38:02.449Z,90
2023-02-06T14:48:03.567Z,90
2023-02-06T14:58:05.378Z,90
2023-02-06T15:08:07.387Z,90
2023-02-06T15:18:08.962Z,89
2023-02-06T15:28:10.481Z,87
2023-02-06T15:38:12.169Z,87
2023-02-06T15:48:14.230Z,87
2023-02-06T16:08:18.236Z,88
2023-02-06T16:18:20.060Z,88
2023-02-06T16:28:21.811Z,88
2023-02-06T16:38:23.257Z,88
2023-02-06T16:48:24.427Z,89
2023-02-06T16:58:26.136Z,89
2023-02-06T17:08:27.957Z,89
2023-02-06T17:18:29.806Z,89
2023-02-06T17:28:30.936Z,89
2023-02-06T17:38:32.842Z,89
2023-02-06T17:48:36.380Z,89
2023-02-06T17:58:35.565Z,89
2023-02-06T18:08:37.319Z,90
2023-02-06T18:18:38.692Z,90
2023-02-06T18:28:40.392Z,90
2023-02-06T18:38:41.971Z,90
2023-02-06T18:48:43.747Z,90
2023-02-06T18:58:44.875Z,90
2023-02-06T19:08:46.667Z,90
2023-02-06T19:18:47.796Z,91
2023-02-06T19:28:49.354Z,91
2023-02-06T19:38:50.994Z,91
2023-02-06T19:48:52.041Z,91
2023-02-06T19:58:53.637Z,91
2023-02-06T20:08:54.939Z,92
2023-02-06T20:18:56.344Z,92
2023-02-06T20:28:57.443Z,92
2023-02-06T20:38:59.422Z,92
2023-02-06T20:49:00.873Z,92
2023-02-06T20:59:02.289Z,92
2023-02-06T21:09:04.327Z,92
2023-02-06T21:19:05.570Z,92
2023-02-06T21:29:06.856Z,93
2023-02-06T21:49:09.884Z,93
2023-02-06T21:59:11.146Z,93
2023-02-06T22:09:12.680Z,93
2023-02-06T22:19:13.835Z,93
2023-02-06T22:29:15.803Z,93
2023-02-06T22:39:16.996Z,93
2023-02-06T22:49:18.581Z,93
2023-02-06T22:59:20.287Z,92
2023-02-06T23:09:22.133Z,92
2023-02-06T23:19:23.800Z,92
2023-02-06T23:29:25.435Z,92
2023-02-06T23:39:26.503Z,92
2023-02-06T23:49:27.817Z,92
2023-02-06T23:59:28.948Z,92
